sensor_id;sensor_type;location;lat;lon;timestamp;pressure;altitude;pressure_sealevel;temperature;humidity
65010;BME280;51556;50.002;22.014;2023-06-05T00:00:32;99760.64;;;12.01;62.87
65010;BME280;51556;50.002;22.014;2023-06-05T00:02:57;99761.70;;;12.01;62.57
65010;BME280;51556;50.002;22.014;2023-06-05T00:05:24;99767.96;;;11.97;62.97
65010;BME280;51556;50.002;22.014;2023-06-05T00:07:51;99765.73;;;11.95;62.79
65010;BME280;51556;50.002;22.014;2023-06-05T00:10:17;99764.59;;;11.91;63.13
65010;BME280;51556;50.002;22.014;2023-06-05T00:12:42;99762.96;;;11.86;63.23
65010;BME280;51556;50.002;22.014;2023-06-05T00:15:09;99766.80;;;11.81;63.06
65010;BME280;51556;50.002;22.014;2023-06-05T00:17:35;99768.61;;;11.79;63.34
65010;BME280;51556;50.002;22.014;2023-06-05T00:20:02;99765.85;;;11.76;63.19
65010;BME280;51556;50.002;22.014;2023-06-05T00:22:29;99765.17;;;11.74;63.30
65010;BME280;51556;50.002;22.014;2023-06-05T00:24:57;99759.39;;;11.72;63.39
65010;BME280;51556;50.002;22.014;2023-06-05T00:27:22;99758.79;;;11.68;63.44
65010;BME280;51556;50.002;22.014;2023-06-05T00:29:49;99762.43;;;11.63;63.01
65010;BME280;51556;50.002;22.014;2023-06-05T00:32:15;99759.33;;;11.60;63.24
65010;BME280;51556;50.002;22.014;2023-06-05T00:34:40;99759.27;;;11.54;63.44
65010;BME280;51556;50.002;22.014;2023-06-05T00:37:06;99759.73;;;11.51;63.31
65010;BME280;51556;50.002;22.014;2023-06-05T00:39:32;99758.10;;;11.45;63.31
65010;BME280;51556;50.002;22.014;2023-06-05T00:41:58;99761.00;;;11.41;63.33
65010;BME280;51556;50.002;22.014;2023-06-05T00:44:24;99760.03;;;11.37;63.78
65010;BME280;51556;50.002;22.014;2023-06-05T00:46:51;99759.08;;;11.32;64.06
65010;BME280;51556;50.002;22.014;2023-06-05T00:49:17;99756.89;;;11.27;64.02
65010;BME280;51556;50.002;22.014;2023-06-05T00:51:45;99759.59;;;11.24;63.86
65010;BME280;51556;50.002;22.014;2023-06-05T00:54:12;99758.61;;;11.21;64.00
65010;BME280;51556;50.002;22.014;2023-06-05T00:56:40;99757.11;;;11.17;64.24
65010;BME280;51556;50.002;22.014;2023-06-05T00:59:07;99754.73;;;11.13;63.89
65010;BME280;51556;50.002;22.014;2023-06-05T01:01:32;99754.66;;;11.09;64.39
65010;BME280;51556;50.002;22.014;2023-06-05T01:04:00;99759.12;;;11.07;64.68
65010;BME280;51556;50.002;22.014;2023-06-05T01:06:27;99755.86;;;11.02;64.74
65010;BME280;51556;50.002;22.014;2023-06-05T01:08:54;99757.14;;;11.00;64.54
65010;BME280;51556;50.002;22.014;2023-06-05T01:14:08;99755.98;;;10.97;64.63
65010;BME280;51556;50.002;22.014;2023-06-05T01:16:38;99754.09;;;10.94;64.60
65010;BME280;51556;50.002;22.014;2023-06-05T01:19:05;99756.66;;;10.89;64.79
65010;BME280;51556;50.002;22.014;2023-06-05T01:21:32;99760.06;;;10.86;64.91
65010;BME280;51556;50.002;22.014;2023-06-05T01:23:58;99762.30;;;10.80;65.15
65010;BME280;51556;50.002;22.014;2023-06-05T01:26:30;99763.85;;;10.74;65.02
65010;BME280;51556;50.002;22.014;2023-06-05T01:29:01;99761.48;;;10.69;65.21
65010;BME280;51556;50.002;22.014;2023-06-05T01:31:30;99758.64;;;10.60;65.20
65010;BME280;51556;50.002;22.014;2023-06-05T01:34:04;99761.68;;;10.58;65.07
65010;BME280;51556;50.002;22.014;2023-06-05T01:36:32;99764.54;;;10.56;65.24
65010;BME280;51556;50.002;22.014;2023-06-05T01:38:59;99766.16;;;10.53;65.59
65010;BME280;51556;50.002;22.014;2023-06-05T01:41:26;99767.62;;;10.51;65.51
65010;BME280;51556;50.002;22.014;2023-06-05T01:43:52;99764.33;;;10.48;65.58
65010;BME280;51556;50.002;22.014;2023-06-05T01:46:21;99763.52;;;10.45;65.16
65010;BME280;51556;50.002;22.014;2023-06-05T01:48:50;99764.41;;;10.43;65.35
65010;BME280;51556;50.002;22.014;2023-06-05T01:51:16;99765.17;;;10.41;65.63
65010;BME280;51556;50.002;22.014;2023-06-05T01:53:42;99761.91;;;10.37;65.79
65010;BME280;51556;50.002;22.014;2023-06-05T01:56:08;99762.49;;;10.34;66.02
65010;BME280;51556;50.002;22.014;2023-06-05T01:58:34;99766.37;;;10.34;65.59
65010;BME280;51556;50.002;22.014;2023-06-05T02:01:00;99765.50;;;10.33;65.66
65010;BME280;51556;50.002;22.014;2023-06-05T02:03:28;99765.55;;;10.31;65.72
65010;BME280;51556;50.002;22.014;2023-06-05T02:05:53;99764.19;;;10.28;65.71
65010;BME280;51556;50.002;22.014;2023-06-05T02:08:19;99763.91;;;10.24;65.93
65010;BME280;51556;50.002;22.014;2023-06-05T02:10:51;99762.55;;;10.21;65.97
65010;BME280;51556;50.002;22.014;2023-06-05T02:13:18;99761.34;;;10.18;66.01
65010;BME280;51556;50.002;22.014;2023-06-05T02:15:45;99761.15;;;10.18;66.17
65010;BME280;51556;50.002;22.014;2023-06-05T02:18:11;99764.67;;;10.20;65.95
65010;BME280;51556;50.002;22.014;2023-06-05T02:20:36;99763.66;;;10.16;66.14
65010;BME280;51556;50.002;22.014;2023-06-05T02:23:02;99764.38;;;10.15;66.06
65010;BME280;51556;50.002;22.014;2023-06-05T02:25:30;99764.10;;;10.11;65.75
65010;BME280;51556;50.002;22.014;2023-06-05T02:27:55;99766.82;;;10.05;65.62
65010;BME280;51556;50.002;22.014;2023-06-05T02:30:21;99767.30;;;9.99;66.24
65010;BME280;51556;50.002;22.014;2023-06-05T02:32:47;99768.46;;;9.92;65.97
65010;BME280;51556;50.002;22.014;2023-06-05T02:35:13;99762.02;;;9.88;66.41
65010;BME280;51556;50.002;22.014;2023-06-05T02:37:40;99765.98;;;9.82;66.48
65010;BME280;51556;50.002;22.014;2023-06-05T02:40:10;99768.03;;;9.75;66.49
65010;BME280;51556;50.002;22.014;2023-06-05T02:42:37;99761.91;;;9.72;66.39
65010;BME280;51556;50.002;22.014;2023-06-05T02:45:03;99761.04;;;9.71;66.61
65010;BME280;51556;50.002;22.014;2023-06-05T02:47:29;99764.39;;;9.71;66.68
65010;BME280;51556;50.002;22.014;2023-06-05T02:49:57;99766.15;;;9.71;66.79
65010;BME280;51556;50.002;22.014;2023-06-05T02:52:22;99763.21;;;9.68;67.17
65010;BME280;51556;50.002;22.014;2023-06-05T02:54:47;99766.05;;;9.67;67.25
65010;BME280;51556;50.002;22.014;2023-06-05T02:57:13;99762.08;;;9.64;66.92
65010;BME280;51556;50.002;22.014;2023-06-05T02:59:41;99764.21;;;9.62;67.00
65010;BME280;51556;50.002;22.014;2023-06-05T03:02:06;99767.55;;;9.62;67.16
65010;BME280;51556;50.002;22.014;2023-06-05T03:04:32;99767.70;;;9.64;67.55
65010;BME280;51556;50.002;22.014;2023-06-05T03:06:57;99769.80;;;9.64;67.80
65010;BME280;51556;50.002;22.014;2023-06-05T03:09:30;99772.25;;;9.65;67.63
65010;BME280;51556;50.002;22.014;2023-06-05T03:11:56;99772.72;;;9.67;67.42
65010;BME280;51556;50.002;22.014;2023-06-05T03:14:22;99771.47;;;9.68;67.64
65010;BME280;51556;50.002;22.014;2023-06-05T03:16:47;99775.23;;;9.65;67.38
65010;BME280;51556;50.002;22.014;2023-06-05T03:19:13;99777.89;;;9.64;67.41
65010;BME280;51556;50.002;22.014;2023-06-05T03:21:38;99775.09;;;9.63;67.55
65010;BME280;51556;50.002;22.014;2023-06-05T03:24:11;99774.94;;;9.61;67.84
65010;BME280;51556;50.002;22.014;2023-06-05T03:26:41;99778.11;;;9.61;68.42
65010;BME280;51556;50.002;22.014;2023-06-05T03:29:08;99780.40;;;9.61;68.02
65010;BME280;51556;50.002;22.014;2023-06-05T03:31:33;99780.55;;;9.62;68.16
65010;BME280;51556;50.002;22.014;2023-06-05T03:34:00;99778.23;;;9.65;68.06
65010;BME280;51556;50.002;22.014;2023-06-05T03:36:28;99777.48;;;9.66;68.36
65010;BME280;51556;50.002;22.014;2023-06-05T03:38:54;99778.34;;;9.67;68.08
65010;BME280;51556;50.002;22.014;2023-06-05T03:41:20;99776.89;;;9.70;68.29
65010;BME280;51556;50.002;22.014;2023-06-05T03:43:47;99779.64;;;9.74;67.75
65010;BME280;51556;50.002;22.014;2023-06-05T03:46:12;99780.09;;;9.80;68.29
65010;BME280;51556;50.002;22.014;2023-06-05T03:48:44;99776.71;;;9.82;68.41
65010;BME280;51556;50.002;22.014;2023-06-05T03:51:09;99777.40;;;9.83;68.79
65010;BME280;51556;50.002;22.014;2023-06-05T03:53:35;99774.58;;;9.84;68.71
65010;BME280;51556;50.002;22.014;2023-06-05T03:56:07;99775.46;;;9.84;68.26
65010;BME280;51556;50.002;22.014;2023-06-05T03:58:34;99772.27;;;9.85;68.62
65010;BME280;51556;50.002;22.014;2023-06-05T04:00:59;99770.79;;;9.90;68.21
65010;BME280;51556;50.002;22.014;2023-06-05T04:03:25;99771.23;;;9.95;68.27
65010;BME280;51556;50.002;22.014;2023-06-05T04:05:52;99769.93;;;9.99;68.64
65010;BME280;51556;50.002;22.014;2023-06-05T04:08:18;99774.40;;;10.04;68.93
65010;BME280;51556;50.002;22.014;2023-06-05T04:10:43;99775.03;;;10.09;68.63
65010;BME280;51556;50.002;22.014;2023-06-05T04:13:09;99773.36;;;10.15;68.82
65010;BME280;51556;50.002;22.014;2023-06-05T04:15:35;99776.46;;;10.18;68.78
65010;BME280;51556;50.002;22.014;2023-06-05T04:18:02;99778.23;;;10.19;68.78
65010;BME280;51556;50.002;22.014;2023-06-05T04:20:28;99779.38;;;10.25;68.91
65010;BME280;51556;50.002;22.014;2023-06-05T04:22:54;99779.60;;;10.32;68.92
65010;BME280;51556;50.002;22.014;2023-06-05T04:25:19;99782.65;;;10.38;69.09
65010;BME280;51556;50.002;22.014;2023-06-05T04:27:46;99778.81;;;10.45;69.02
65010;BME280;51556;50.002;22.014;2023-06-05T04:30:13;99776.75;;;10.52;68.94
65010;BME280;51556;50.002;22.014;2023-06-05T04:32:40;99780.80;;;10.61;68.75
65010;BME280;51556;50.002;22.014;2023-06-05T04:35:07;99782.52;;;10.73;68.64
65010;BME280;51556;50.002;22.014;2023-06-05T04:37:34;99781.12;;;10.81;69.00
65010;BME280;51556;50.002;22.014;2023-06-05T04:40:04;99782.35;;;10.90;68.80
65010;BME280;51556;50.002;22.014;2023-06-05T04:42:32;99779.42;;;11.05;68.59
65010;BME280;51556;50.002;22.014;2023-06-05T04:44:59;99776.45;;;11.19;68.43
65010;BME280;51556;50.002;22.014;2023-06-05T04:47:27;99775.98;;;11.33;68.70
65010;BME280;51556;50.002;22.014;2023-06-05T04:49:52;99779.70;;;11.40;68.35
65010;BME280;51556;50.002;22.014;2023-06-05T04:52:19;99783.46;;;11.46;68.25
65010;BME280;51556;50.002;22.014;2023-06-05T04:54:56;99785.20;;;11.54;68.44
65010;BME280;51556;50.002;22.014;2023-06-05T04:57:22;99786.27;;;11.61;68.31
65010;BME280;51556;50.002;22.014;2023-06-05T04:59:49;99777.95;;;11.70;67.95
65010;BME280;51556;50.002;22.014;2023-06-05T05:02:16;99781.92;;;11.83;68.15
65010;BME280;51556;50.002;22.014;2023-06-05T05:04:42;99782.23;;;11.91;67.96
65010;BME280;51556;50.002;22.014;2023-06-05T05:07:07;99781.73;;;11.98;67.94
65010;BME280;51556;50.002;22.014;2023-06-05T05:09:38;99783.99;;;12.06;67.80
65010;BME280;51556;50.002;22.014;2023-06-05T05:12:04;99783.75;;;12.16;67.57
65010;BME280;51556;50.002;22.014;2023-06-05T05:14:29;99781.79;;;12.30;67.47
65010;BME280;51556;50.002;22.014;2023-06-05T05:16:55;99786.59;;;12.42;67.47
65010;BME280;51556;50.002;22.014;2023-06-05T05:19:21;99784.87;;;12.54;67.20
65010;BME280;51556;50.002;22.014;2023-06-05T05:21:49;99784.69;;;12.66;67.01
65010;BME280;51556;50.002;22.014;2023-06-05T05:24:15;99784.34;;;12.80;66.83
65010;BME280;51556;50.002;22.014;2023-06-05T05:26:41;99791.02;;;12.94;66.37
65010;BME280;51556;50.002;22.014;2023-06-05T05:29:07;99784.52;;;13.04;66.24
65010;BME280;51556;50.002;22.014;2023-06-05T05:31:33;99783.61;;;13.18;66.15
65010;BME280;51556;50.002;22.014;2023-06-05T05:33:59;99780.27;;;13.30;65.66
65010;BME280;51556;50.002;22.014;2023-06-05T05:36:25;99778.86;;;13.41;65.50
65010;BME280;51556;50.002;22.014;2023-06-05T05:38:52;99778.81;;;13.48;65.13
65010;BME280;51556;50.002;22.014;2023-06-05T05:41:18;99779.25;;;13.57;65.20
65010;BME280;51556;50.002;22.014;2023-06-05T05:43:43;99774.01;;;13.66;64.80
65010;BME280;51556;50.002;22.014;2023-06-05T05:46:09;99778.75;;;13.78;64.78
65010;BME280;51556;50.002;22.014;2023-06-05T05:48:52;99780.40;;;13.87;64.58
65010;BME280;51556;50.002;22.014;2023-06-05T05:51:19;99778.80;;;13.99;64.55
65010;BME280;51556;50.002;22.014;2023-06-05T05:53:46;99774.09;;;14.12;64.01
65010;BME280;51556;50.002;22.014;2023-06-05T05:56:12;99774.23;;;14.24;63.86
65010;BME280;51556;50.002;22.014;2023-06-05T05:58:37;99777.00;;;14.37;63.53
65010;BME280;51556;50.002;22.014;2023-06-05T06:01:06;99777.58;;;14.51;63.48
65010;BME280;51556;50.002;22.014;2023-06-05T06:03:31;99776.85;;;14.61;62.99
65010;BME280;51556;50.002;22.014;2023-06-05T06:05:59;99780.44;;;14.71;63.14
65010;BME280;51556;50.002;22.014;2023-06-05T06:08:25;99780.54;;;14.83;62.86
65010;BME280;51556;50.002;22.014;2023-06-05T06:10:52;99781.45;;;14.91;62.87
65010;BME280;51556;50.002;22.014;2023-06-05T06:13:17;99775.83;;;15.04;62.64
65010;BME280;51556;50.002;22.014;2023-06-05T06:15:43;99777.50;;;15.16;62.06
65010;BME280;51556;50.002;22.014;2023-06-05T06:18:09;99777.27;;;15.31;61.63
65010;BME280;51556;50.002;22.014;2023-06-05T06:20:35;99779.68;;;15.48;61.45
65010;BME280;51556;50.002;22.014;2023-06-05T06:23:00;99779.13;;;15.62;61.26
65010;BME280;51556;50.002;22.014;2023-06-05T06:25:28;99773.77;;;15.72;60.90
65010;BME280;51556;50.002;22.014;2023-06-05T06:28:00;99774.07;;;15.82;60.62
65010;BME280;51556;50.002;22.014;2023-06-05T06:30:26;99778.65;;;15.92;60.49
65010;BME280;51556;50.002;22.014;2023-06-05T06:32:56;99781.23;;;16.01;60.25
65010;BME280;51556;50.002;22.014;2023-06-05T06:35:26;99780.83;;;16.12;59.78
65010;BME280;51556;50.002;22.014;2023-06-05T06:37:54;99775.86;;;16.25;59.65
65010;BME280;51556;50.002;22.014;2023-06-05T06:40:21;99774.27;;;16.41;59.51
65010;BME280;51556;50.002;22.014;2023-06-05T06:42:48;99772.41;;;16.55;59.47
65010;BME280;51556;50.002;22.014;2023-06-05T06:45:14;99772.86;;;16.70;59.24
65010;BME280;51556;50.002;22.014;2023-06-05T06:47:40;99769.98;;;16.83;59.06
65010;BME280;51556;50.002;22.014;2023-06-05T06:50:07;99767.71;;;16.94;58.88
65010;BME280;51556;50.002;22.014;2023-06-05T06:52:32;99762.48;;;17.03;58.50
65010;BME280;51556;50.002;22.014;2023-06-05T06:54:58;99757.66;;;17.11;58.31
65010;BME280;51556;50.002;22.014;2023-06-05T06:57:23;99757.44;;;17.23;58.55
65010;BME280;51556;50.002;22.014;2023-06-05T06:59:49;99758.20;;;17.38;58.50
65010;BME280;51556;50.002;22.014;2023-06-05T07:02:16;99752.85;;;17.49;58.13
65010;BME280;51556;50.002;22.014;2023-06-05T07:04:43;99751.06;;;17.60;58.01
65010;BME280;51556;50.002;22.014;2023-06-05T07:07:16;99752.98;;;17.73;58.09
65010;BME280;51556;50.002;22.014;2023-06-05T07:09:51;99753.23;;;17.89;58.45
65010;BME280;51556;50.002;22.014;2023-06-05T07:12:17;99750.09;;;18.02;58.17
65010;BME280;51556;50.002;22.014;2023-06-05T07:14:45;99745.55;;;18.15;58.45
65010;BME280;51556;50.002;22.014;2023-06-05T07:17:10;99743.05;;;18.25;57.97
65010;BME280;51556;50.002;22.014;2023-06-05T07:19:39;99745.59;;;18.38;57.59
65010;BME280;51556;50.002;22.014;2023-06-05T07:22:06;99749.16;;;18.52;57.26
65010;BME280;51556;50.002;22.014;2023-06-05T07:24:35;99747.05;;;18.65;56.26
65010;BME280;51556;50.002;22.014;2023-06-05T07:27:03;99745.48;;;18.79;56.39
65010;BME280;51556;50.002;22.014;2023-06-05T07:29:29;99741.73;;;18.92;55.91
65010;BME280;51556;50.002;22.014;2023-06-05T07:31:56;99741.61;;;19.04;54.98
65010;BME280;51556;50.002;22.014;2023-06-05T07:34:23;99741.37;;;19.15;55.15
65010;BME280;51556;50.002;22.014;2023-06-05T07:36:50;99740.27;;;19.28;54.48
65010;BME280;51556;50.002;22.014;2023-06-05T07:39:17;99738.39;;;19.43;54.80
65010;BME280;51556;50.002;22.014;2023-06-05T07:41:43;99740.83;;;19.57;54.67
65010;BME280;51556;50.002;22.014;2023-06-05T07:44:10;99740.33;;;19.69;54.02
65010;BME280;51556;50.002;22.014;2023-06-05T07:46:36;99736.18;;;19.79;52.51
65010;BME280;51556;50.002;22.014;2023-06-05T07:49:02;99733.79;;;19.89;52.28
65010;BME280;51556;50.002;22.014;2023-06-05T07:51:28;99734.83;;;20.02;50.93
65010;BME280;51556;50.002;22.014;2023-06-05T07:53:53;99736.57;;;20.15;48.17
65010;BME280;51556;50.002;22.014;2023-06-05T07:56:19;99739.39;;;20.28;46.13
65010;BME280;51556;50.002;22.014;2023-06-05T07:58:49;99741.73;;;20.40;44.42
65010;BME280;51556;50.002;22.014;2023-06-05T08:01:14;99738.45;;;20.52;42.89
65010;BME280;51556;50.002;22.014;2023-06-05T08:03:41;99737.69;;;20.62;43.59
65010;BME280;51556;50.002;22.014;2023-06-05T08:06:09;99739.33;;;20.74;43.87
65010;BME280;51556;50.002;22.014;2023-06-05T08:08:38;99735.56;;;20.88;43.46
65010;BME280;51556;50.002;22.014;2023-06-05T08:11:03;99738.21;;;21.03;43.52
65010;BME280;51556;50.002;22.014;2023-06-05T08:13:29;99737.05;;;21.16;41.82
65010;BME280;51556;50.002;22.014;2023-06-05T08:15:57;99735.38;;;21.28;41.51
65010;BME280;51556;50.002;22.014;2023-06-05T08:18:22;99734.85;;;21.37;39.93
65010;BME280;51556;50.002;22.014;2023-06-05T08:20:48;99733.23;;;21.43;40.20
65010;BME280;51556;50.002;22.014;2023-06-05T08:23:13;99736.26;;;21.51;41.41
65010;BME280;51556;50.002;22.014;2023-06-05T08:25:40;99728.99;;;21.63;41.45
65010;BME280;51556;50.002;22.014;2023-06-05T08:28:05;99726.27;;;21.72;39.37
65010;BME280;51556;50.002;22.014;2023-06-05T08:30:31;99734.42;;;21.76;40.04
65010;BME280;51556;50.002;22.014;2023-06-05T08:32:56;99728.11;;;21.85;39.30
65010;BME280;51556;50.002;22.014;2023-06-05T08:35:22;99726.05;;;21.91;39.05
65010;BME280;51556;50.002;22.014;2023-06-05T08:37:47;99723.90;;;21.97;38.86
65010;BME280;51556;50.002;22.014;2023-06-05T08:40:14;99719.72;;;21.97;37.63
65010;BME280;51556;50.002;22.014;2023-06-05T08:42:40;99725.36;;;21.99;37.77
65010;BME280;51556;50.002;22.014;2023-06-05T08:45:09;99728.05;;;22.05;38.24
65010;BME280;51556;50.002;22.014;2023-06-05T08:47:36;99725.37;;;22.13;37.61
65010;BME280;51556;50.002;22.014;2023-06-05T08:50:05;99720.08;;;22.20;37.88
65010;BME280;51556;50.002;22.014;2023-06-05T08:52:38;99722.88;;;22.31;38.62
65010;BME280;51556;50.002;22.014;2023-06-05T08:55:05;99717.83;;;22.42;37.84
65010;BME280;51556;50.002;22.014;2023-06-05T08:57:34;99726.48;;;22.49;37.41
65010;BME280;51556;50.002;22.014;2023-06-05T09:00:21;99729.92;;;22.54;37.69
65010;BME280;51556;50.002;22.014;2023-06-05T09:02:50;99726.80;;;22.62;38.02
65010;BME280;51556;50.002;22.014;2023-06-05T09:05:17;99734.22;;;22.72;38.15
65010;BME280;51556;50.002;22.014;2023-06-05T09:07:42;99726.69;;;22.80;37.19
65010;BME280;51556;50.002;22.014;2023-06-05T09:10:24;99729.70;;;22.83;36.89
65010;BME280;51556;50.002;22.014;2023-06-05T09:15:29;99727.32;;;22.94;37.54
65010;BME280;51556;50.002;22.014;2023-06-05T09:20:38;99727.85;;;23.06;37.18
65010;BME280;51556;50.002;22.014;2023-06-05T09:23:36;99725.80;;;23.12;36.07
65010;BME280;51556;50.002;22.014;2023-06-05T09:26:03;99728.53;;;23.14;36.33
65010;BME280;51556;50.002;22.014;2023-06-05T09:28:28;99725.64;;;23.20;36.44
65010;BME280;51556;50.002;22.014;2023-06-05T09:30:59;99728.33;;;23.30;36.98
65010;BME280;51556;50.002;22.014;2023-06-05T09:33:30;99731.91;;;23.42;37.15
65010;BME280;51556;50.002;22.014;2023-06-05T09:36:11;99728.09;;;23.55;36.91
65010;BME280;51556;50.002;22.014;2023-06-05T09:38:39;99724.70;;;23.70;36.94
65010;BME280;51556;50.002;22.014;2023-06-05T09:41:06;99720.37;;;23.82;36.92
65010;BME280;51556;50.002;22.014;2023-06-05T09:43:35;99725.56;;;23.94;36.98
65010;BME280;51556;50.002;22.014;2023-06-05T09:46:08;99717.89;;;24.06;35.72
65010;BME280;51556;50.002;22.014;2023-06-05T09:48:35;99720.36;;;24.11;35.22
65010;BME280;51556;50.002;22.014;2023-06-05T09:53:51;99725.28;;;24.39;34.72
65010;BME280;51556;50.002;22.014;2023-06-05T09:56:17;99723.09;;;24.44;34.23
65010;BME280;51556;50.002;22.014;2023-06-05T09:59:03;99721.27;;;24.42;34.46
65010;BME280;51556;50.002;22.014;2023-06-05T10:01:30;99717.62;;;24.51;34.28
65010;BME280;51556;50.002;22.014;2023-06-05T10:04:02;99715.77;;;24.59;34.17
65010;BME280;51556;50.002;22.014;2023-06-05T10:06:32;99709.40;;;24.69;33.81
65010;BME280;51556;50.002;22.014;2023-06-05T10:09:09;99708.45;;;24.81;33.88
65010;BME280;51556;50.002;22.014;2023-06-05T10:11:35;99708.83;;;24.90;33.73
65010;BME280;51556;50.002;22.014;2023-06-05T10:14:11;99708.59;;;24.98;34.66
65010;BME280;51556;50.002;22.014;2023-06-05T10:16:57;99705.05;;;25.11;32.69
65010;BME280;51556;50.002;22.014;2023-06-05T10:19:24;99707.12;;;25.23;32.59
65010;BME280;51556;50.002;22.014;2023-06-05T10:22:13;99699.94;;;25.33;33.64
65010;BME280;51556;50.002;22.014;2023-06-05T10:24:45;99698.55;;;25.44;33.19
65010;BME280;51556;50.002;22.014;2023-06-05T10:31:23;99685.20;;;25.83;32.49
65010;BME280;51556;50.002;22.014;2023-06-05T10:40:05;99689.89;;;26.28;30.92
65010;BME280;51556;50.002;22.014;2023-06-05T10:42:31;99691.08;;;26.40;31.43
65010;BME280;51556;50.002;22.014;2023-06-05T10:45:53;99692.55;;;26.56;30.61
65010;BME280;51556;50.002;22.014;2023-06-05T10:48:15;99692.84;;;26.70;28.85
65010;BME280;51556;50.002;22.014;2023-06-05T11:14:56;99686.29;;;28.20;28.88
65010;BME280;51556;50.002;22.014;2023-06-05T11:23:39;99687.14;;;28.55;26.92
65010;BME280;51556;50.002;22.014;2023-06-05T11:26:51;99685.39;;;28.66;26.77
65010;BME280;51556;50.002;22.014;2023-06-05T11:42:51;99676.94;;;29.58;25.03
65010;BME280;51556;50.002;22.014;2023-06-05T11:45:38;99675.00;;;29.43;25.26
65010;BME280;51556;50.002;22.014;2023-06-05T12:22:23;99650.31;;;30.38;22.81
65010;BME280;51556;50.002;22.014;2023-06-05T14:16:56;99540.02;;;36.50;18.26
65010;BME280;51556;50.002;22.014;2023-06-05T16:02:37;99483.55;;;32.34;19.61
65010;BME280;51556;50.002;22.014;2023-06-05T16:33:14;99478.91;;;31.03;20.82
65010;BME280;51556;50.002;22.014;2023-06-05T17:12:24;99474.21;;;27.55;24.25
65010;BME280;51556;50.002;22.014;2023-06-05T17:27:06;99468.27;;;26.88;25.26
65010;BME280;51556;50.002;22.014;2023-06-05T17:32:52;99467.25;;;26.60;25.98
65010;BME280;51556;50.002;22.014;2023-06-05T17:35:38;99467.58;;;26.50;26.22
65010;BME280;51556;50.002;22.014;2023-06-05T17:38:07;99471.30;;;26.41;26.14
65010;BME280;51556;50.002;22.014;2023-06-05T17:40:33;99470.25;;;26.29;26.96
65010;BME280;51556;50.002;22.014;2023-06-05T17:43:07;99472.00;;;26.21;26.52
65010;BME280;51556;50.002;22.014;2023-06-05T17:45:33;99469.77;;;26.11;28.12
65010;BME280;51556;50.002;22.014;2023-06-05T17:48:19;99469.91;;;26.04;28.27
65010;BME280;51556;50.002;22.014;2023-06-05T17:50:45;99471.56;;;25.95;28.84
65010;BME280;51556;50.002;22.014;2023-06-05T17:53:10;99470.09;;;25.87;28.62
65010;BME280;51556;50.002;22.014;2023-06-05T17:55:48;99467.96;;;25.77;28.67
65010;BME280;51556;50.002;22.014;2023-06-05T17:58:30;99470.49;;;25.64;29.18
65010;BME280;51556;50.002;22.014;2023-06-05T18:01:24;99473.58;;;25.55;29.81
65010;BME280;51556;50.002;22.014;2023-06-05T18:06:55;99472.23;;;25.18;31.32
65010;BME280;51556;50.002;22.014;2023-06-05T18:09:23;99472.61;;;25.05;31.34
65010;BME280;51556;50.002;22.014;2023-06-05T18:11:49;99469.90;;;24.92;31.89
65010;BME280;51556;50.002;22.014;2023-06-05T18:14:16;99470.62;;;24.79;32.46
65010;BME280;51556;50.002;22.014;2023-06-05T18:16:42;99474.12;;;24.67;32.59
65010;BME280;51556;50.002;22.014;2023-06-05T18:19:08;99470.48;;;24.54;33.02
65010;BME280;51556;50.002;22.014;2023-06-05T18:21:55;99471.32;;;24.42;33.15
65010;BME280;51556;50.002;22.014;2023-06-05T18:24:23;99478.66;;;24.27;33.62
65010;BME280;51556;50.002;22.014;2023-06-05T18:26:49;99477.77;;;24.13;33.77
65010;BME280;51556;50.002;22.014;2023-06-05T18:29:32;99481.16;;;24.00;34.22
65010;BME280;51556;50.002;22.014;2023-06-05T18:32:37;99481.86;;;23.81;34.75
65010;BME280;51556;50.002;22.014;2023-06-05T18:35:25;99484.34;;;23.66;35.09
65010;BME280;51556;50.002;22.014;2023-06-05T18:37:50;99486.46;;;23.53;35.75
65010;BME280;51556;50.002;22.014;2023-06-05T18:40:16;99489.36;;;23.40;36.19
65010;BME280;51556;50.002;22.014;2023-06-05T18:46:34;99496.38;;;23.05;37.05
65010;BME280;51556;50.002;22.014;2023-06-05T18:49:02;99491.07;;;22.89;37.49
65010;BME280;51556;50.002;22.014;2023-06-05T18:51:48;99496.85;;;22.74;37.80
65010;BME280;51556;50.002;22.014;2023-06-05T18:54:13;99502.21;;;22.57;37.95
65010;BME280;51556;50.002;22.014;2023-06-05T18:56:49;99506.68;;;22.40;38.48
65010;BME280;51556;50.002;22.014;2023-06-05T18:59:41;99506.97;;;22.24;39.21
65010;BME280;51556;50.002;22.014;2023-06-05T19:02:14;99514.50;;;22.06;39.21
65010;BME280;51556;50.002;22.014;2023-06-05T19:04:40;99516.54;;;21.92;39.33
65010;BME280;51556;50.002;22.014;2023-06-05T19:07:05;99519.84;;;21.78;39.99
65010;BME280;51556;50.002;22.014;2023-06-05T19:09:34;99520.34;;;21.60;40.34
65010;BME280;51556;50.002;22.014;2023-06-05T19:11:59;99521.70;;;21.46;40.52
65010;BME280;51556;50.002;22.014;2023-06-05T19:14:25;99524.38;;;21.35;40.38
65010;BME280;51556;50.002;22.014;2023-06-05T19:16:51;99520.49;;;21.23;41.09
65010;BME280;51556;50.002;22.014;2023-06-05T19:19:29;99522.56;;;21.08;41.69
65010;BME280;51556;50.002;22.014;2023-06-05T19:21:55;99523.36;;;20.91;41.92
65010;BME280;51556;50.002;22.014;2023-06-05T19:24:20;99527.88;;;20.79;42.37
65010;BME280;51556;50.002;22.014;2023-06-05T19:26:48;99525.77;;;20.68;42.51
65010;BME280;51556;50.002;22.014;2023-06-05T19:29:14;99530.41;;;20.59;42.62
65010;BME280;51556;50.002;22.014;2023-06-05T19:31:39;99532.58;;;20.50;43.41
65010;BME280;51556;50.002;22.014;2023-06-05T19:34:05;99531.17;;;20.39;43.11
65010;BME280;51556;50.002;22.014;2023-06-05T19:36:30;99526.96;;;20.32;43.21
65010;BME280;51556;50.002;22.014;2023-06-05T19:38:56;99523.33;;;20.24;43.28